00:20
Airports
Links
Donate
Help keep this website running!
PayPal
Bitcoin
METAR
KRNT 132353Z 33011KT 10SM CLR 08/03 A3038 RMK AO2 SLP291 T00830028 10094 20033 55003 $
Current Weather Conditions at KRNT
VFR 23:53:00 13-12-17
Automated station
Altimeter:30.38 hg
Temp:8.3°c 46°f
Dew point:2.8°c 36°f
Wind:11 knots, 12.7 mph, 6 m/s, from 330°
Visibility:10.0 statute miles
(CLR) Clear
Past METAR reports
VFR 22:53:00 13-12-17
Automated station
Altimeter:30.37 hg
Temp:8.9°c 46°f
Dew point:3.9°c 37°f
Wind:11 knots, 12.7 mph, 6 m/s, from 360°
Visibility:10.0 statute miles
(CLR) Clear
KRNT 132253Z COR 36011KT 320V040 10SM CLR 09/04 A3037 RMK AO2 SLP289 T00890039 $
VFR 21:53:00 13-12-17
Automated station
Altimeter:30.37 hg
Temp:8.9°c 46°f
Dew point:1.7°c 34°f
Wind:10 knots, 11.5 mph, 5 m/s, from 340°
Visibility:10.0 statute miles
(CLR) Clear
KRNT 132153Z 34010KT 10SM CLR 09/02 A3037 RMK AO2 SLP290 T00890017
VFR 20:53:00 13-12-17
Automated station
Altimeter:30.39 hg
Temp:8.9°c 46°f
Dew point:3.3°c 37°f
Wind:10 knots, 11.5 mph, 5 m/s, from 340°
Visibility:10.0 statute miles
(CLR) Clear
KRNT 132053Z 34010KT 10SM CLR 09/03 A3039 RMK AO2 SLP294 T00890033 56021 $
VFR 19:53:00 13-12-17
Automated station
Altimeter:30.41 hg
Temp:8.9°c 46°f
Dew point:3.3°c 37°f
Wind: knots, 0 mph, 0 m/s,
Visibility:10.0 statute miles
(CLR) Clear
KRNT 131953Z 10SM CLR 09/03 A3041 RMK AO2 SLP302 T00890033 $
VFR 18:53:00 13-12-17
Automated station
Altimeter:30.42 hg
Temp:6.7°c 43°f
Dew point:1.7°c 34°f
Wind:4 knots, 4.6 mph, 2 m/s, from 360°
Visibility:10.0 statute miles
(CLR) Clear
KRNT 131853Z 36004KT 10SM CLR 07/02 A3042 RMK AO2 SLP305 T00670017
TAF
No TAF for KRNT
Forecast at KRNT
No Forecast Reports for KRNT